Tiempo atmosférico en la estación meteorológica de Bielsa, Huesca (990 m.)

Fecha
DESCASC
Temp. máxima en grados centígrados (hora)
DESCASC
Temp. mínima en grados centígrados (hora)
DESCASC
Temp. media en grados centígrados
DESCASC
Racha de viento máxima en m/sg (hora)
DESCASC
Velocidad máxima media en intervalos de 10 minutos(hora)
DESCASC
Precipitaciones diarias en mm
DESCASC
Precipitaciones de 00:00 a 06:00 en mm
DESCASC
Precipitaciones de 06:00 a 12:00 en mm
DESCASC
Precipitaciones de 12:00 a 18:00 en mm
DESCASC
Precipitaciones de 18:00 a 24:00 en mm
DESCASC
17-08-2017 33.3 (17:50) 11.9 (06:50) 22.6 8.89 (16:40) 2.5 (16:00) 0 0 0 0 0
16-08-2017 30.8 (16:20) 12.9 (05:40) 21.8 7.78 (17:00) 3.06 (13:30) 0 0 0 0 0
15-08-2017 30.2 (17:20) 12.1 (00:00) 21.2 6.67 (20:30) 2.22 (14:30) 0.2 0 0 0.2 0
14-08-2017 31.5 (18:10) 10.8 (05:40) 21.2 7.22 (15:40) 2.5 (16:20) 0 0 0 0 0
13-08-2017 29.4 (15:00) 9.7 (00:00) 19.5 7.78 (16:40) 2.5 (13:20) 0 0 0 0 0
12-08-2017 27.7 (17:00) 5.5 (00:00) 16.6 9.44 (15:50) 2.78 (14:30) 0 0 0 0 0
11-08-2017 25.8 (15:50) 6.9 (00:00) 16.3 11.67 (18:30) 5.28 (17:50) 0 0 0 0 0
10-08-2017 21 (16:10) 8.6 (00:00) 14.8 13.06 (17:30) 5.56 (18:10) 0 0 0 0 0
09-08-2017 22.3 (14:10) 8.1 (00:00) 15.2 8.89 (18:00) 4.17 (20:10) 0 0 0 0 0
08-08-2017 27.6 (14:00) 11.3 (00:00) 19.5 12.5 (16:10) 4.72 (16:30) 0 0 0 0 0
07-08-2017 28.5 (17:50) 15.9 (00:00) 22.2 8.06 (12:50) 3.06 (13:00) 0.4 0.2 0.2 0 0
06-08-2017 27.3 (19:00) 14.5 (00:00) 20.9 16.67 (05:10) 4.17 (05:10) 35.8 14.2 20.8 0.8 0
05-08-2017 33 (15:40) 15.7 (00:00) 24.3 7.78 (14:30) 2.5 (15:50) 1.2 0 0 1.2 0
04-08-2017 35.9 (18:50) 14.2 (00:00) 25.1 7.78 (14:50) 2.78 (12:00) 0 0 0 0 0
03-08-2017 35.1 (17:40) 14.3 (00:00) 24.7 8.06 (15:10) 2.22 (14:10) 0 0 0 0 0
02-08-2017 31.4 (13:20) 14.3 (00:00) 22.8 13.89 (15:00) 4.72 (15:00) 0 0 0 0 0
01-08-2017 30.6 (15:30) 14.8 (00:00) 22.7 10.83 (18:00) 2.78 (17:40) 1.8 0 1.8 0 0
31-07-2017 33.2 (18:20) 14 (00:00) 23.6 11.39 (13:50) 3.61 (16:20) 0 0 0 0 0
30-07-2017 32.4 (15:30) 15.4 (00:00) 23.9 12.78 (14:30) 5 (14:30) 0 0 0 0 0
29-07-2017 32.3 (15:00) 13.9 (00:00) 23.1 8.33 (11:50) 3.06 (13:00) 0 0 0 0 0
28-07-2017 31.6 (16:30) 11.3 (00:00) 21.5 8.61 (12:30) 2.78 (15:40) 0 0 0 0 0
27-07-2017 33 (18:30) 10 (00:00) 21.5 10.56 (13:00) 3.89 (13:00) 0 0 0 0 0
26-07-2017 28 (16:40) 8.2 (00:00) 18.1 11.39 (16:00) 5.28 (15:40) 0 0 0 0 0
25-07-2017 24.5 (15:30) 12.1 (00:00) 18.3 12.78 (19:20) 6.39 (15:10) 0 0 0 0 0
24-07-2017 25 (15:40) 11.7 (00:00) 18.3 13.89 (16:50) 5.56 (17:20) 0 0 0 0 0
23-07-2017 25.6 (11:50) 13.7 (00:00) 19.7 8.06 (14:30) 3.33 (16:10) 11.4 0 0 11.4 0
22-07-2017 28 (17:10) 13.8 (00:00) 20.9 9.17 (15:30) 4.44 (15:50) 0.2 0.2 0 0 0

Gráficas

Temp. máximas Temp. mínimas Temp. medias Precipitaciones Rachas de viento máximas Velocidades máximas media en intervalos de 10 minutos

Datos horarios

Fecha y hora oficial Temperatura (ºC) Velocidad del viento (km/h) Dirección del viento Racha (km/h) Dirección de racha Precipitación (mm) Presión (hPa) Tendencia (hPa) Humedad (%)
2017-08-20 23:00:00 15.1 0 Calma 8 Norte 0 -- -- 70
2017-08-20 22:00:00 17 3 Noroeste 9 Noroeste 0 -- -- 63
2017-08-20 21:00:00 18.9 0 Calma 8 Norte 0 -- -- 60
2017-08-20 20:00:00 22.9 4 Norte 28 Oeste 0 -- -- 44
2017-08-20 19:00:00 25.6 8 Noroeste 24 Noroeste 0 -- -- 32
2017-08-20 18:00:00 29 6 Sudeste 21 Sur 0 -- -- 31
2017-08-20 17:00:00 29.5 8 Sudeste 30 Sudeste 0 -- -- 29
2017-08-20 16:00:00 29.8 8 Sudeste 29 Sudeste 0 -- -- 30
2017-08-20 15:00:00 29 12 Sudeste 30 Sur 0 -- -- 30
2017-08-20 14:00:00 28 10 Sudeste 31 Sur 0 -- -- 32
2017-08-20 13:00:00 26.9 9 Sudeste 31 Sudeste 0 -- -- 32
2017-08-20 12:00:00 24.7 8 Sudeste 25 Sur 0 -- -- 38
2017-08-20 11:00:00 20.1 5 Este 13 Este 0 -- -- 44
2017-08-20 10:00:00 17.2 2 Norte 5 Norte 0 -- -- 51
2017-08-20 09:00:00 10.9 0 Calma 4 Norte 0 -- -- 86
2017-08-20 08:00:00 9.6 0 Calma 5 Norte 0 -- -- 87
2017-08-20 07:00:00 9.6 2 Norte 9 Noroeste 0 -- -- 86
2017-08-20 06:00:00 9.9 0 Calma 7 Noroeste 0 -- -- 84
2017-08-20 05:00:00 10.6 0 Calma 9 Noroeste 0 -- -- 82
2017-08-20 04:00:00 11.1 2 Noroeste 9 Norte 0 -- -- 80
2017-08-20 03:00:00 11.3 2 Noroeste 9 Noroeste 0 -- -- 79
2017-08-20 02:00:00 11.8 2 Noroeste 5 Norte 0 -- -- 78
2017-08-20 01:00:00 12.7 0 Calma 6 Norte 0 -- -- 76
2017-08-20 00:00:00 13.7 0 Calma 8 Noroeste 0 -- -- 74
2017-08-19 23:00:00 15.2 2 Noroeste 10 Noroeste 0 -- -- 66
2017-08-19 22:00:00 16.5 2 Noroeste 9 Norte 0 -- -- 67
2017-08-19 21:00:00 18.5 2 Norte 10 Noroeste 0 -- -- 61
2017-08-19 20:00:00 20.7 3 Noroeste 8 Noroeste 0 -- -- 57
2017-08-19 19:00:00 25.1 3 Sur 19 Sur 0 -- -- 42
2017-08-19 18:00:00 27.9 7 Sudeste 30 Este 0 -- -- 31
2017-08-19 17:00:00 28.4 8 Sudeste 33 Sur 0 -- -- 29
2017-08-19 16:00:00 28.8 8 Este 25 Sur 0 -- -- 31
2017-08-19 15:00:00 28.9 8 Sudeste 25 Sur 0 -- -- 34
2017-08-19 14:00:00 28.1 9 Sudeste 33 Sur 0 -- -- 39
2017-08-19 13:00:00 26.8 8 Sudeste 31 Este 0 -- -- 39
2017-08-19 12:00:00 25.7 6 Sudeste 28 Este 0 -- -- 42
2017-08-19 11:00:00 22 3 Sudeste 13 Sudeste 0 -- -- 51
2017-08-19 10:00:00 19 0 Calma 6 Noroeste 0 -- -- 59
2017-08-19 09:00:00 14.8 0 Calma 6 Noroeste 0 -- -- 81
2017-08-19 08:00:00 13.2 0 Calma 9 Noroeste 0 -- -- 82
2017-08-19 07:00:00 13.5 3 Noroeste 8 Noroeste 0 -- -- 79
2017-08-19 06:00:00 14.3 3 Norte 5 Noroeste 0 -- -- 80
2017-08-19 05:00:00 14.8 0 Calma 5 Noroeste 0 -- -- 78
2017-08-19 04:00:00 15.6 2 Noroeste 10 Noroeste 0 -- -- 74
2017-08-19 03:00:00 17 4 Noroeste 13 Norte 0 -- -- 69
2017-08-19 02:00:00 17.1 3 Noroeste 7 Norte 0 -- -- 74
2017-08-19 01:00:00 17.9 0 Calma 11 Noroeste 0 -- -- 71
2017-08-19 00:00:00 18.6 2 Norte 10 Norte 0 -- -- 69
2017-08-18 23:00:00 19 4 Noroeste 9 Noroeste 0 -- -- 65
2017-08-18 22:00:00 20.1 2 Noroeste 8 Oeste 0 -- -- 64
2017-08-18 21:00:00 22.4 0 Calma 22 Noroeste 0 -- -- 54
2017-08-18 20:00:00 25.2 12 Noroeste 29 Noroeste 0 -- -- 40
2017-08-18 19:00:00 29.8 3 Nordeste 30 Norte 0 -- -- 31
2017-08-18 18:00:00 31.6 6 Este 30 Nordeste 0 -- -- 24
2017-08-18 17:00:00 30.9 5 Este 24 Este 0 -- -- 29
2017-08-18 16:00:00 32.3 7 Sudeste 23 Sudeste 0 -- -- 29
2017-08-18 15:00:00 31.6 7 Sudeste 23 Este 0 -- -- 30
2017-08-18 14:00:00 31 7 Sudeste 26 Sudeste 0 -- -- 30
2017-08-18 13:00:00 30.9 7 Sudeste 30 Sur 0 -- -- 34
2017-08-18 12:00:00 28.6 6 Sudeste 22 Sur 0 -- -- 38
2017-08-18 11:00:00 23.7 3 Sudeste 6 Sudeste 0 -- -- 54
2017-08-18 10:00:00 20.6 0 Calma 4 Norte 0 -- -- 70
2017-08-18 09:00:00 15.9 2 Nordeste 12 Noroeste 0 -- -- 85
2017-08-18 08:00:00 14.3 2 Oeste 12 Norte 0 -- -- 86
2017-08-18 07:00:00 14.4 3 Noroeste 13 Norte 0 -- -- 84
2017-08-18 06:00:00 14.5 3 Oeste 19 Noroeste 0 -- -- 83
2017-08-18 05:00:00 14.1 2 Norte 11 Noroeste 0 -- -- 88
2017-08-18 04:00:00 14.2 0 Calma 7 Noroeste 0 -- -- 87
2017-08-18 03:00:00 14.7 0 Calma 7 Noroeste 0 -- -- 86
2017-08-18 02:00:00 15.2 2 Noroeste 9 Noroeste 0 -- -- 85
2017-08-18 01:00:00 16 0 Calma 14 Noroeste 0 -- -- 82
2017-08-18 00:00:00 16.9 0 Calma 8 Noroeste 0 -- -- 80
2017-08-17 23:00:00 18 3 Noroeste 9 Noroeste 0 -- -- 75
2017-08-17 22:00:00 19.5 2 Noroeste 9 Norte 0 -- -- 70
2017-08-17 21:00:00 20.8 3 Norte 8 Noroeste 0 -- -- 66
2017-08-17 20:00:00 23.2 2 Norte 6 Oeste 0 -- -- 58
2017-08-17 19:00:00 27.9 3 Oeste 14 Sudeste 0 -- -- 39
2017-08-17 18:00:00 33 3 Sur 29 Sudeste 0 -- -- 25
2017-08-17 17:00:00 32.6 8 Sudeste 32 Sur 0 -- -- 27
2017-08-17 16:00:00 32.8 9 Sudeste 23 Sudeste 0 -- -- 25
2017-08-17 15:00:00 32.8 8 Sudeste 23 Sudeste 0 -- -- 25
2017-08-17 14:00:00 31.9 6 Sudeste 22 Sudeste 0 -- -- 27
2017-08-17 13:00:00 30.2 8 Sudeste 27 Este 0 -- -- 24
2017-08-17 12:00:00 28.2 5 Sudeste 17 Sudeste 0 -- -- 32
2017-08-17 11:00:00 22.5 3 Este 7 Sur 0 -- -- 46
2017-08-17 10:00:00 19.5 2 Norte 7 Noroeste 0 -- -- 62
2017-08-17 09:00:00 13.3 0 Calma 6 Sudoeste 0 -- -- 88
2017-08-17 08:00:00 12.3 3 Noroeste 16 Norte 0 -- -- 91
2017-08-17 07:00:00 12 2 Noroeste 9 Noroeste 0 -- -- 93
2017-08-17 06:00:00 12.3 0 Calma 14 Nordeste 0 -- -- 94
2017-08-17 05:00:00 12.9 2 Norte 8 Noroeste 0 -- -- 93
2017-08-17 04:00:00 13.9 3 Noroeste 10 Norte 0 -- -- 89
2017-08-17 03:00:00 14.4 0 Calma 5 Norte 0 -- -- 90
2017-08-17 02:00:00 15 0 Calma 7 Oeste 0 -- -- 88
2017-08-17 01:00:00 15.7 2 Noroeste 8 Noroeste 0 -- -- 86
2017-08-17 00:00:00 16.8 0 Calma 10 Noroeste 0 -- -- 82
2017-08-16 23:00:00 17.8 3 Noroeste 8 Noroeste 0 -- -- 81
2017-08-16 22:00:00 19.1 4 Noroeste 7 Noroeste 0 -- -- 77
2017-08-16 21:00:00 21.2 3 Noroeste 7 Noroeste 0 -- -- 72
2017-08-16 20:00:00 22.6 3 Noroeste 14 Sudeste 0 -- -- 67
2017-08-16 19:00:00 27.5 3 Sudeste 15 Sudeste 0 -- -- 47
2017-08-16 18:00:00 28.6 3 Sudeste 26 Sudeste 0 -- -- 40
2017-08-16 17:00:00 28.7 8 Sudeste 28 Sur 0 -- -- 37
2017-08-16 16:00:00 30.5 8 Sudeste 24 Sudeste 0 -- -- 31
2017-08-16 15:00:00 29.4 8 Sudeste 26 Sur 0 -- -- 35
2017-08-16 14:00:00 29.3 7 Sudeste 26 Sur 0 -- -- 36
2017-08-16 13:00:00 28.6 6 Sudeste 27 Sudeste 0 -- -- 36
2017-08-16 12:00:00 27.1 5 Sudeste 21 Sudeste 0 -- -- 45
2017-08-16 11:00:00 23.1 3 Este 12 Este 0 -- -- 53
2017-08-16 10:00:00 21 2 Noroeste 11 Noroeste 0 -- -- 60
2017-08-16 09:00:00 16.9 3 Noroeste 8 Noroeste 0 -- -- 80
2017-08-16 08:00:00 14 2 Noroeste 8 Noroeste 0 -- -- 92
2017-08-16 07:00:00 13.5 2 Noroeste 4 Oeste 0 -- -- 94
2017-08-16 06:00:00 13 0 Calma 5 Oeste 0 -- -- 94
2017-08-16 05:00:00 13.3 0 Calma 14 Noroeste 0 -- -- 93
2017-08-16 04:00:00 13.5 3 Noroeste 11 Noroeste 0 -- -- 94
2017-08-16 03:00:00 14 0 Calma 9 Noroeste 0 -- -- 93
2017-08-16 02:00:00 14.4 4 Noroeste 14 Nordeste 0 -- -- 92
2017-08-16 01:00:00 14.7 0 Calma 12 Norte 0 -- -- 91
2017-08-16 00:00:00 14.9 3 Noroeste 8 Norte 0 -- -- 94
2017-08-15 23:00:00 15.8 0 Calma 5 Este 0 -- -- 91
2017-08-15 22:00:00 17 2 Norte 7 Sur 0 -- -- 90
2017-08-15 21:00:00 18.9 4 Sudeste 24 Sur 0 -- -- 80
2017-08-15 20:00:00 22.4 4 Sur 9 Sur 0 -- -- 55
2017-08-15 19:00:00 24.7 3 Noroeste 20 Este 0 -- -- 53
2017-08-15 18:00:00 29.2 4 Sudeste 17 Este 0 -- -- 38
2017-08-15 17:00:00 29.9 3 Sudeste 14 Este 0 -- -- 32
2017-08-15 16:00:00 27 3 Sudeste 12 Este 0 -- -- 47
2017-08-15 15:00:00 24.9 5 Este 15 Este 0 -- -- 52
2017-08-15 14:00:00 23.7 6 Sudeste 12 Sudeste 0.2 -- -- 62
2017-08-15 13:00:00 25.7 4 Sudeste 12 Noroeste 0 -- -- 49
2017-08-15 12:00:00 24.3 2 Sudeste 8 Noroeste 0 -- -- 49
2017-08-15 11:00:00 20.7 2 Norte 10 Noroeste 0 -- -- 60
2017-08-15 10:00:00 17.8 3 Norte 9 Noroeste 0 -- -- 75
2017-08-15 09:00:00 13.8 0 Calma 8 Noroeste 0 -- -- 89
2017-08-15 08:00:00 12.3 0 Calma 5 Noroeste 0 -- -- 92
2017-08-15 07:00:00 12.3 2 Norte 6 Noroeste 0 -- -- 92
2017-08-15 06:00:00 13.1 3 Noroeste 6 Oeste 0 -- -- 92
2017-08-15 05:00:00 14.2 3 Noroeste 17 Norte 0 -- -- 89
2017-08-15 04:00:00 15.5 4 Norte 22 Norte 0 -- -- 85
2017-08-15 03:00:00 15.4 2 Norte 12 Noroeste 0 -- -- 87
2017-08-15 02:00:00 15.5 5 Noroeste 23 Norte 0 -- -- 78
2017-08-15 01:00:00 15.2 7 Noroeste 15 Norte 0 -- -- 78
2017-08-15 00:00:00 15.3 3 Noroeste 10 Noroeste 0 -- -- 77
2017-08-14 23:00:00 15.8 2 Noroeste 5 Noroeste 0 -- -- 75
2017-08-14 22:00:00 16.8 2 Norte 6 Noroeste 0 -- -- 71
2017-08-14 21:00:00 18.6 0 Calma 9 Noroeste 0 -- -- 65
2017-08-14 20:00:00 21.7 2 Norte 15 Oeste 0 -- -- 57
2017-08-14 19:00:00 26.3 0 Calma 7 Noroeste 0 -- -- 39
2017-08-14 18:00:00 30.9 3 Norte 23 Sudeste 0 -- -- 24
2017-08-14 17:00:00 30.5 8 Sudeste 24 Este 0 -- -- 25
2017-08-14 16:00:00 29.3 8 Sudeste 26 Este 0 -- -- 28
2017-08-14 15:00:00 30.5 7 Sudeste 25 Sudeste 0 -- -- 28
2017-08-14 14:00:00 30.2 5 Sudeste 23 Sudeste 0 -- -- 29
2017-08-14 13:00:00 29.1 6 Sudeste 25 Sur 0 -- -- 29
2017-08-14 12:00:00 27.4 7 Sudeste 18 Sudeste 0 -- -- 35
2017-08-14 11:00:00 22.6 0 Calma 4 Norte 0 -- -- 54
2017-08-14 10:00:00 19.2 0 Calma 10 Noroeste 0 -- -- 65
2017-08-14 09:00:00 13.1 2 Este 8 Noroeste 0 -- -- 91
2017-08-14 08:00:00 11.1 0 Calma 9 Noroeste 0 -- -- 92
2017-08-14 07:00:00 11 3 Oeste 10 Noroeste 0 -- -- 91
2017-08-14 06:00:00 11 3 Noroeste 7 Noroeste 0 -- -- 92
2017-08-14 05:00:00 11.2 0 Calma 7 Noroeste 0 -- -- 91
2017-08-14 04:00:00 11.5 2 Noroeste 6 Noroeste 0 -- -- 91
2017-08-14 03:00:00 11.9 0 Calma 10 Norte 0 -- -- 89
2017-08-14 02:00:00 12.5 0 Calma 9 Norte 0 -- -- 88
2017-08-14 01:00:00 13 0 Calma 6 Noroeste 0 -- -- 86
2017-08-14 00:00:00 13.7 0 Calma 6 Noroeste 0 -- -- 85
2017-08-13 23:00:00 14.7 0 Calma 6 Oeste 0 -- -- 81
2017-08-13 22:00:00 16 2 Noroeste 7 Noroeste 0 -- -- 76
2017-08-13 21:00:00 17.9 2 Norte 6 Noroeste 0 -- -- 72
2017-08-13 20:00:00 20.6 2 Nordeste 16 Sudeste 0 -- -- 60
2017-08-13 19:00:00 24.3 2 Norte 16 Sur 0 -- -- 46
2017-08-13 18:00:00 29.2 8 Sudeste 27 Este 0 -- -- 29
2017-08-13 17:00:00 29.1 8 Sudeste 28 Este 0 -- -- 28
2017-08-13 16:00:00 28.8 7 Sudeste 27 Sudeste 0 -- -- 30
2017-08-13 15:00:00 28.8 6 Sudeste 24 Sur 0 -- -- 30
2017-08-13 14:00:00 28 8 Sudeste 22 Sur 0 -- -- 33
2017-08-13 13:00:00 26.3 7 Sudeste 27 Este 0 -- -- 36
2017-08-13 12:00:00 25.3 6 Sudeste 23 Sur 0 -- -- 36
2017-08-13 11:00:00 21.1 0 Calma 4 Este 0 -- -- 52
2017-08-13 10:00:00 17.8 0 Calma 5 Este 0 -- -- 66
2017-08-13 09:00:00 12.8 0 Calma 5 Noroeste 0 -- -- 89
2017-08-13 08:00:00 10.4 0 Calma 11 Noroeste 0 -- -- 92
2017-08-13 07:00:00 10 3 Noroeste 11 Noroeste 0 -- -- 93
2017-08-13 06:00:00 10.1 3 Noroeste 12 Norte 0 -- -- 93
2017-08-13 05:00:00 10.3 0 Calma 10 Noroeste 0 -- -- 94
2017-08-13 04:00:00 10.5 0 Calma 6 Noroeste 0 -- -- 93
2017-08-13 03:00:00 11.1 2 Oeste 6 Noroeste 0 -- -- 91
2017-08-13 02:00:00 11.5 0 Calma 5 Noroeste 0 -- -- 90
2017-08-13 01:00:00 12.2 0 Calma 6 Noroeste 0 -- -- 88
2017-08-13 00:00:00 13.1 0 Calma 6 Noroeste 0 -- -- 85
2017-08-12 23:00:00 14.1 0 Calma 14 Sudoeste 0 -- -- 81
2017-08-12 22:00:00 15.5 3 Noroeste 7 Noroeste 0 -- -- 75
2017-08-12 21:00:00 16.9 2 Norte 7 Noroeste 0 -- -- 70
2017-08-12 20:00:00 19.9 3 Noroeste 15 Este 0 -- -- 58
2017-08-12 19:00:00 24.7 6 Sudeste 21 Este 0 -- -- 39
2017-08-12 18:00:00 27.3 8 Sudeste 25 Sudeste 0 -- -- 29
2017-08-12 17:00:00 27.7 7 Sudeste 27 Este 0 -- -- 30
2017-08-12 16:00:00 26.9 8 Sudeste 34 Sudeste 0 -- -- 31
2017-08-12 15:00:00 26.7 8 Sudeste 29 Sudeste 0 -- -- 31
2017-08-12 14:00:00 25.8 7 Sudeste 24 Este 0 -- -- 34
2017-08-12 13:00:00 23.9 6 Sudeste 26 Sur 0 -- -- 38
2017-08-12 12:00:00 21.9 8 Sudeste 21 Sur 0 -- -- 39
2017-08-12 11:00:00 17.8 6 Sudeste 19 Este 0 -- -- 48
2017-08-12 10:00:00 14.8 4 Sudeste 9 Este 0 -- -- 50
2017-08-12 09:00:00 8.5 2 Nordeste 9 Norte 0 -- -- 83
2017-08-12 08:00:00 5.9 3 Noroeste 9 Noroeste 0 -- -- 84
2017-08-12 07:00:00 5.7 0 Calma 6 Noroeste 0 -- -- 87
2017-08-12 06:00:00 6.2 3 Noroeste 14 Nordeste 0 -- -- 82
2017-08-12 05:00:00 6.3 0 Calma 8 Noroeste 0 -- -- 81
2017-08-12 04:00:00 6.8 0 Calma 13 Noroeste 0 -- -- 83
2017-08-12 03:00:00 7.5 3 Noroeste 10 Noroeste 0 -- -- 79
2017-08-12 02:00:00 8.3 0 Calma 11 Noroeste 0 -- -- 79
2017-08-12 01:00:00 9.2 3 Noroeste 10 Noroeste 0 -- -- 75
2017-08-12 00:00:00 10.8 2 Noroeste 15 Norte 0 -- -- 69
2017-08-11 23:00:00 12.7 6 Noroeste 20 Norte 0 -- -- 62
2017-08-11 22:00:00 15 5 Norte 38 Noroeste 0 -- -- 56
2017-08-11 21:00:00 16.6 12 Noroeste 39 Noroeste 0 -- -- 47
2017-08-11 20:00:00 17.6 13 Noroeste 39 Noroeste 0 -- -- 45
2017-08-11 19:00:00 19.7 12 Noroeste 42 Noroeste 0 -- -- 38
2017-08-11 18:00:00 22.1 17 Noroeste 41 Noroeste 0 -- -- 30
2017-08-11 17:00:00 23.5 14 Noroeste 37 Noroeste 0 -- -- 26
2017-08-11 16:00:00 24.7 5 Noroeste 23 Sur 0 -- -- 27
2017-08-11 15:00:00 25.1 8 Sudeste 28 Sudeste 0 -- -- 27
2017-08-11 14:00:00 24 9 Sudeste 24 Sudeste 0 -- -- 26
2017-08-11 13:00:00 22.7 9 Sudeste 20 Sur 0 -- -- 29
2017-08-11 12:00:00 20.8 7 Sudeste 21 Sur 0 -- -- 31
2017-08-11 11:00:00 17.3 5 Sudeste 15 Este 0 -- -- 37
2017-08-11 10:00:00 14.8 3 Sudeste 12 Este 0 -- -- 45
2017-08-11 09:00:00 9.7 0 Calma 16 Norte 0 -- -- 71
2017-08-11 08:00:00 7.8 6 Norte 18 Norte 0 -- -- 69
2017-08-11 07:00:00 7.2 4 Noroeste 22 Norte 0 -- -- 74
2017-08-11 06:00:00 7.8 5 Norte 15 Noroeste 0 -- -- 71
2017-08-11 05:00:00 9.4 0 Calma 21 Noroeste 0 -- -- 66
2017-08-11 04:00:00 11.8 10 Noroeste 30 Noroeste 0 -- -- 51
2017-08-11 03:00:00 11.7 12 Noroeste 24 Noroeste 0 -- -- 51
2017-08-11 02:00:00 11.2 8 Norte 18 Noroeste 0 -- -- 56
2017-08-11 01:00:00 11.2 6 Noroeste 18 Noroeste 0 -- -- 60
2017-08-11 00:00:00 13.2 6 Noroeste 30 Noroeste 0 -- -- 52
2017-08-10 23:00:00 13.8 14 Noroeste 40 Norte 0 -- -- 51
2017-08-10 22:00:00 14.1 11 Noroeste 33 Noroeste 0 -- -- 51
2017-08-10 21:00:00 14.2 6 Noroeste 33 Noroeste 0 -- -- 53
2017-08-10 20:00:00 15.4 15 Noroeste 35 Noroeste 0 -- -- 48
2017-08-10 19:00:00 17.9 10 Noroeste 46 Noroeste 0 -- -- 41
2017-08-10 18:00:00 16.9 17 Noroeste 47 Noroeste 0 -- -- 45
2017-08-10 17:00:00 17.7 10 Noroeste 38 Noroeste 0 -- -- 40
2017-08-10 16:00:00 20.6 14 Noroeste 37 Norte 0 -- -- 37
2017-08-10 15:00:00 17.5 11 Noroeste 31 Noroeste 0 -- -- 40
2017-08-10 14:00:00 17.1 12 Noroeste 31 Norte 0 -- -- 46
2017-08-10 13:00:00 16.9 15 Noroeste 39 Noroeste 0 -- -- 45
2017-08-10 12:00:00 18.7 17 Noroeste 42 Noroeste 0 -- -- 39
2017-08-10 11:00:00 16.3 10 Noroeste 32 Noroeste 0 -- -- 43
2017-08-10 10:00:00 15.4 10 Norte 27 Noroeste 0 -- -- 43
2017-08-10 09:00:00 11.1 6 Norte 22 Norte 0 -- -- 65
2017-08-10 08:00:00 9.7 7 Noroeste 23 Norte 0 -- -- 64
2017-08-10 07:00:00 10 9 Norte 27 Noroeste 0 -- -- 60
2017-08-10 06:00:00 10 8 Norte 25 Norte 0 -- -- 58
2017-08-10 05:00:00 9.5 9 Norte 27 Norte 0 -- -- 63
2017-08-10 04:00:00 8.7 6 Noroeste 24 Noroeste 0 -- -- 66
2017-08-10 03:00:00 9.4 11 Noroeste 26 Norte 0 -- -- 62
2017-08-10 02:00:00 9.8 8 Norte 28 Noroeste 0 -- -- 62
2017-08-10 01:00:00 9.9 8 Norte 22 Noroeste 0 -- -- 62
2017-08-10 00:00:00 10.8 7 Norte 26 Noroeste 0 -- -- 60
2017-08-09 23:00:00 12.2 11 Noroeste 31 Noroeste 0 -- -- 53
2017-08-09 22:00:00 12.6 11 Noroeste 30 Norte 0 -- -- 55
2017-08-09 21:00:00 13.6 15 Noroeste 30 Noroeste 0 -- -- 52
2017-08-09 20:00:00 14.5 13 Noroeste 29 Noroeste 0 -- -- 53
2017-08-09 19:00:00 15.6 12 Noroeste 31 Noroeste 0 -- -- 51
2017-08-09 18:00:00 16.1 11 Noroeste 32 Noroeste 0 -- -- 52
2017-08-09 17:00:00 16.7 3 Sur 21 Sudeste 0 -- -- 60
2017-08-09 16:00:00 18.2 5 Sudeste 20 Sudeste 0 -- -- 55
2017-08-09 15:00:00 18.3 6 Sudeste 22 Sur 0 -- -- 52
2017-08-09 14:00:00 22.1 5 Sudeste 21 Sur 0 -- -- 39
2017-08-09 13:00:00 16.4 6 Este 21 Sudeste 0 -- -- 63
2017-08-09 12:00:00 15.8 6 Sudeste 22 Sur 0 -- -- 62
2017-08-09 11:00:00 16.7 9 Sudeste 23 Sudeste 0 -- -- 59
2017-08-09 10:00:00 13.5 3 Sudeste 10 Noroeste 0 -- -- 77
2017-08-09 09:00:00 11.4 0 Calma 8 Oeste 0 -- -- 85
2017-08-09 08:00:00 9.5 3 Noroeste 14 Norte 0 -- -- 91
2017-08-09 07:00:00 8.4 3 Noroeste 12 Noroeste 0 -- -- 96
2017-08-09 06:00:00 8.6 6 Norte 19 Norte 0 -- -- 94
2017-08-09 05:00:00 8.4 2 Norte 8 Este 0 -- -- 95
2017-08-09 04:00:00 9.2 2 Oeste 17 Norte 0 -- -- 92
2017-08-09 03:00:00 9.5 4 Noroeste 11 Norte 0 -- -- 93
2017-08-09 02:00:00 10.1 2 Noroeste 18 Norte 0 -- -- 91
2017-08-09 01:00:00 10.8 5 Norte 17 Norte 0 -- -- 87
2017-08-09 00:00:00 11.3 3 Noroeste 14 Norte 0 -- -- 85
2017-08-08 23:00:00 12.7 3 Noroeste 14 Noroeste 0 -- -- 80
2017-08-08 22:00:00 14.2 2 Norte 22 Noroeste 0 -- -- 70
2017-08-08 21:00:00 16.5 9 Noroeste 29 Noroeste 0 -- -- 55
2017-08-08 20:00:00 17.6 11 Noroeste 38 Noroeste 0 -- -- 51
2017-08-08 19:00:00 18.4 12 Noroeste 41 Noroeste 0 -- -- 49
2017-08-08 18:00:00 21.1 13 Noroeste 45 Noroeste 0 -- -- 43
2017-08-08 17:00:00 21.6 12 Noroeste 45 Noroeste 0 -- -- 43
2017-08-08 16:00:00 22.8 15 Noroeste 41 Noroeste 0 -- -- 40
2017-08-08 15:00:00 25.5 9 Sudeste 32 Sur 0 -- -- 28
2017-08-08 14:00:00 26.8 8 Sudeste 28 Sur 0 -- -- 28
2017-08-08 13:00:00 26.5 8 Sudeste 24 Sudeste 0 -- -- 39
2017-08-08 12:00:00 25.3 9 Sudeste 29 Sudeste 0 -- -- 49
2017-08-08 11:00:00 24.3 9 Sudeste 30 Sudeste 0 -- -- 58
2017-08-08 10:00:00 23.3 8 Sudeste 22 Sudeste 0 -- -- 62
2017-08-08 09:00:00 19.7 8 Sur 23 Sudeste 0 -- -- 77
2017-08-08 08:00:00 19.4 10 Este 26 Este 0 -- -- 78
2017-08-08 07:00:00 19.3 8 Este 28 Este 0 -- -- 82
2017-08-08 06:00:00 19.6 6 Sudeste 36 Este 0 -- -- 83
2017-08-08 05:00:00 19.8 10 Este 28 Este 0 -- -- 84
2017-08-08 04:00:00 18.4 5 Sudeste 17 Sudeste 0 -- -- 95
2017-08-08 03:00:00 17.5 2 Sudeste 14 Sudeste 0 -- -- 98
2017-08-08 02:00:00 17.4 3 Norte 14 Noroeste 0 -- -- 97
2017-08-08 01:00:00 16.2 2 Sudoeste 6 Noroeste 0 -- -- 96
2017-08-08 00:00:00 16.7 3 Norte 7 Norte 0 -- -- 95
2017-08-07 23:00:00 17.1 0 Calma 5 Norte 0 -- -- 93
2017-08-07 22:00:00 18.2 2 Noroeste 4 Norte 0 -- -- 90
2017-08-07 21:00:00 19.5 2 Noroeste 7 Norte 0 -- -- 83
2017-08-07 20:00:00 21.7 2 Norte 5 Norte 0 -- -- 75
2017-08-07 19:00:00 23.8 0 Calma 5 Noroeste 0 -- -- 67
2017-08-07 18:00:00 26.8 0 Calma 5 Sudoeste 0 -- -- 55
2017-08-07 17:00:00 26.1 3 Sur 17 Sur 0 -- -- 62
2017-08-07 16:00:00 25.5 5 Sudeste 24 Sudeste 0 -- -- 59
2017-08-07 15:00:00 27.6 8 Sudeste 26 Sudeste 0 -- -- 53
2017-08-07 14:00:00 26.5 8 Sudeste 28 Sudeste 0 -- -- 56
2017-08-07 13:00:00 25.6 11 Sudeste 29 Este 0 -- -- 58
2017-08-07 12:00:00 25.6 9 Sudeste 25 Sudeste 0 -- -- 60
2017-08-07 11:00:00 23.4 7 Sur 22 Este 0 -- -- 68
2017-08-07 10:00:00 19.4 3 Norte 10 Norte 0 -- -- 90
2017-08-07 09:00:00 18 0 Calma 5 Sudeste 0 -- -- 98
2017-08-07 08:00:00 16.6 2 Sudeste 6 Norte 0 -- -- 98
2017-08-07 07:00:00 16 0 Calma 5 Norte 0.2 -- -- 98
2017-08-07 06:00:00 16.1 0 Calma 7 Noroeste 0 -- -- 98
2017-08-07 05:00:00 16.4 0 Calma 5 Noroeste 0.2 -- -- 98
2017-08-07 04:00:00 16.5 4 Noroeste 12 Norte 0 -- -- 98
2017-08-07 03:00:00 16.1 0 Calma 7 Noroeste 0 -- -- 98
2017-08-07 02:00:00 16 2 Noroeste 14 Sudoeste 0 -- -- 98
2017-08-07 01:00:00 16.2 0 Calma 8 Norte 0 -- -- 97
2017-08-07 00:00:00 17.2 0 Calma 8 Noroeste 0 -- -- 95
2017-08-06 23:00:00 17.9 3 Noroeste 13 Norte 0 -- -- 92
2017-08-06 22:00:00 18.2 2 Noroeste 6 Noroeste 0 -- -- 93
2017-08-06 21:00:00 19.4 2 Oeste 13 Norte 0 -- -- 89
2017-08-06 20:00:00 21.7 4 Noroeste 12 Norte 0 -- -- 80
2017-08-06 19:00:00 26.6 0 Calma 12 Sur 0 -- -- 62
2017-08-06 18:00:00 24.9 3 Sur 16 Sur 0 -- -- 70
2017-08-06 17:00:00 24.9 6 Sudeste 26 Sur 0 -- -- 62
2017-08-06 16:00:00 24.4 6 Sudeste 25 Sudeste 0 -- -- 65
2017-08-06 15:00:00 23.7 9 Sur 26 Sudeste 0.2 -- -- 69
2017-08-06 14:00:00 23.4 3 Sudeste 16 Sur 0.2 -- -- 76
2017-08-06 13:00:00 21.6 4 Sudeste 14 Sur 0.4 -- -- 79
2017-08-06 12:00:00 19.1 3 Sudeste 8 Este 0.2 -- -- 98
2017-08-06 11:00:00 17.5 3 Sudeste 8 Sudeste 0.2 -- -- 98
2017-08-06 10:00:00 16.4 0 Calma 5 Este 1.4 -- -- 98
2017-08-06 09:00:00 15.5 0 Calma 21 Norte 3.4 -- -- 98
2017-08-06 08:00:00 14.8 4 Norte 14 Norte 6.6 -- -- 98
2017-08-06 07:00:00 14.8 8 Sudeste 40 Noroeste 9 -- -- 98
2017-08-06 06:00:00 15.3 5 Norte 60 Noroeste 7 -- -- 98
2017-08-06 05:00:00 16.8 3 Sudeste 14 Oeste 0.4 -- -- 97
2017-08-06 04:00:00 16.8 6 Norte 28 Norte 2.2 -- -- 97
2017-08-06 03:00:00 16.9 4 Norte 16 Norte 3.6 -- -- 95
2017-08-06 02:00:00 17 3 Norte 31 Noroeste 0.6 -- -- 91
2017-08-06 01:00:00 19.6 8 Noroeste 37 Noroeste 0.4 -- -- 72
2017-08-06 00:00:00 17.7 2 Nordeste 11 Noroeste 0 -- -- 87
2017-08-05 23:00:00 18.2 0 Calma 6 Sur 0 -- -- 86
2017-08-05 22:00:00 19.4 0 Calma 14 Este 0 -- -- 77
2017-08-05 21:00:00 21.4 4 Sudeste 20 Este 0 -- -- 73
2017-08-05 20:00:00 22.9 4 Sudeste 16 Este 0 -- -- 72
2017-08-05 19:00:00 23.4 7 Sudeste 21 Este 0 -- -- 73
2017-08-05 18:00:00 22.8 6 Este 22 Este 1 -- -- 76
2017-08-05 17:00:00 24.9 3 Noroeste 22 Este 0.2 -- -- 77
2017-08-05 16:00:00 30.9 6 Sudeste 26 Este 0 -- -- 33
2017-08-05 15:00:00 32.1 6 Sudeste 28 Este 0 -- -- 32
2017-08-05 14:00:00 29.6 6 Sudeste 20 Sudeste 0 -- -- 36
2017-08-05 13:00:00 28.9 5 Sudeste 16 Sudeste 0 -- -- 42
2017-08-05 12:00:00 25.6 4 Sudeste 25 Sudeste 0 -- -- 60
2017-08-05 11:00:00 25.6 6 Sudeste 17 Este 0 -- -- 51
2017-08-05 10:00:00 24.3 5 Noroeste 10 Norte 0 -- -- 56
2017-08-05 09:00:00 20.5 6 Norte 16 Norte 0 -- -- 72
2017-08-05 08:00:00 16.8 3 Noroeste 6 Norte 0 -- -- 86
2017-08-05 07:00:00 15.8 0 Calma 9 Noroeste 0 -- -- 88
2017-08-05 06:00:00 15.9 2 Norte 11 Noroeste 0 -- -- 87
2017-08-05 05:00:00 16.2 2 Nordeste 6 Noroeste 0 -- -- 86
2017-08-05 04:00:00 16.4 0 Calma 8 Noroeste 0 -- -- 86
2017-08-05 03:00:00 16.9 2 Norte 8 Oeste 0 -- -- 84
2017-08-05 02:00:00 17.5 2 Noroeste 8 Noroeste 0 -- -- 81
2017-08-05 01:00:00 18.6 2 Noroeste 13 Norte 0 -- -- 76
2017-08-05 00:00:00 19.4 0 Calma 15 Noroeste 0 -- -- 75
2017-08-04 23:00:00 20.8 4 Noroeste 12 Norte 0 -- -- 69
2017-08-04 22:00:00 21.5 3 Noroeste 9 Noroeste 0 -- -- 69
2017-08-04 21:00:00 23.9 3 Noroeste 13 Norte 0 -- -- 61
2017-08-04 20:00:00 26.8 4 Noroeste 10 Noroeste 0 -- -- 51
2017-08-04 19:00:00 34.6 3 Sur 19 Este 0 -- -- 28
2017-08-04 18:00:00 35.2 5 Sudeste 23 Sudeste 0 -- -- 25
2017-08-04 17:00:00 35.2 6 Sudeste 23 Sudeste 0 -- -- 27
2017-08-04 16:00:00 34.6 7 Sudeste 26 Sur 0 -- -- 25
2017-08-04 15:00:00 32.8 5 Sudeste 28 Sur 0 -- -- 30
2017-08-04 14:00:00 32.9 7 Este 23 Este 0 -- -- 27
2017-08-04 13:00:00 32.6 8 Sudeste 22 Sur 0 -- -- 28
2017-08-04 12:00:00 30.9 10 Sudeste 25 Este 0 -- -- 31
2017-08-04 11:00:00 27.5 4 Sudeste 13 Sudeste 0 -- -- 42
2017-08-04 10:00:00 22.9 2 Norte 8 Norte 0 907.4 -0.1 62
2017-08-04 09:00:00 17.8 3 Norte 13 Sudoeste 0 907.4 0 78
2017-08-04 08:00:00 15 3 Noroeste 9 Noroeste 0 907.5 0.1 84
2017-08-04 07:00:00 14.6 5 Noroeste 11 Noroeste 0 907.5 -0.1 82
2017-08-04 06:00:00 14.5 3 Noroeste 16 Norte 0 907.4 -0.1 82
2017-08-04 05:00:00 14.4 0 Calma 6 Noroeste 0 907.4 -0.1 82
2017-08-04 04:00:00 15.2 2 Noroeste 13 Noroeste 0 907.6 0.2 78
2017-08-04 03:00:00 15.2 3 Noroeste 7 Noroeste 0 907.5 0.1 78
2017-08-04 02:00:00 15.8 2 Noroeste 6 Noroeste 0 907.5 0.2 76
2017-08-04 01:00:00 17.2 2 Noroeste 11 Norte 0 907.4 0.6 72
2017-08-04 00:00:00 18.4 4 Noroeste 15 Noroeste 0 907.4 1.3 68
2017-08-03 23:00:00 19.4 2 Noroeste 12 Noroeste 0 907.3 1.7 69
2017-08-03 22:00:00 20.6 3 Norte 10 Norte 0 906.8 1.3 66
2017-08-03 21:00:00 22.3 3 Noroeste 10 Norte 0 906.1 0.5 62
2017-08-03 20:00:00 24.5 3 Noroeste 8 Noroeste 0 905.6 -0.2 54
2017-08-03 19:00:00 29.8 0 Calma 17 Norte 0 905.5 -0.6 42
2017-08-03 18:00:00 33.4 6 Nordeste 20 Noroeste 0 905.6 -1 24
2017-08-03 17:00:00 34.3 3 Sur 28 Este 0 905.8 -1.2 23
2017-08-03 16:00:00 32.5 7 Sudeste 29 Sur 0 906.1 -1.4 23
2017-08-03 15:00:00 33.1 5 Sudeste 23 Sudeste 0 906.6 -1.1 26
2017-08-03 14:00:00 33 6 Sudeste 24 Sudeste 0 907 -1.1 24
2017-08-03 13:00:00 32.5 6 Sudeste 21 Sur 0 907.5 -1.2 27
2017-08-03 12:00:00 30.8 5 Sudeste 15 Este 0 907.7 -1.3 32
2017-08-03 11:00:00 26.5 4 Noroeste 6 Noroeste 0 908.1 -1.3 45
2017-08-03 10:00:00 22.5 3 Norte 7 Noroeste 0 908.7 -0.5 57
2017-08-03 09:00:00 17.4 0 Calma 6 Noroeste 0 909 -0.1 81
2017-08-03 08:00:00 15.1 4 Noroeste 11 Norte 0 909.4 0.6 84
2017-08-03 07:00:00 14.4 3 Noroeste 7 Noroeste 0 909.2 0.3 86
2017-08-03 06:00:00 14.7 0 Calma 9 Oeste 0 909.1 0.3 85
2017-08-03 05:00:00 15.1 0 Calma 8 Noroeste 0 908.8 -0.4 84
2017-08-03 04:00:00 15.8 0 Calma 10 Noroeste 0 908.9 -0.7 81
2017-08-03 03:00:00 16.6 2 Noroeste 8 Norte 0 908.8 -0.4 78
2017-08-03 02:00:00 17.9 2 Noroeste 6 Noroeste 0 909.2 0.2 74
2017-08-03 01:00:00 18.5 0 Calma 6 Norte 0 909.6 1 71
2017-08-03 00:00:00 19 2 Noroeste 5 Norte 0 909.2 1.4 69
2017-08-02 23:00:00 19.7 0 Calma 6 Norte 0 909 1.7 64
2017-08-02 22:00:00 20.6 3 Noroeste 8 Noroeste 0 908.6 0.8 62
2017-08-02 21:00:00 22.5 2 Noroeste 14 Este 0 907.8 -0.5 60
2017-08-02 20:00:00 26.2 4 Sudeste 19 Este 0 907.3 -1 41
2017-08-02 19:00:00 29.9 5 Sudeste 31 Este 0 907.8 -0.7 28
2017-08-02 18:00:00 27.7 11 Este 42 Este 0 908.3 -0.2 33
2017-08-02 17:00:00 27.4 12 Este 37 Este 0 908.3 -0.5 32
2017-08-02 16:00:00 28.5 11 Este 39 Este 0 908.5 -0.5 32
2017-08-02 15:00:00 30.3 17 Este 50 Este 0 908.5 -0.5 29
2017-08-02 14:00:00 28.9 8 Este 26 Este 0 908.8 -0.2 32
2017-08-02 13:00:00 30.5 7 Sudeste 33 Este 0 909 -0.6 29
2017-08-02 12:00:00 28.8 10 Sudeste 37 Este 0 909 -0.6 34
2017-08-02 11:00:00 24.5 2 Este 8 Este 0 909 -0.2 59
2017-08-02 10:00:00 20.1 0 Calma 3 Este 0 909.6 0.5 76
2017-08-02 09:00:00 17.8 0 Calma 9 Noroeste 0 909.6 0.6 81
2017-08-02 08:00:00 15.6 2 Noroeste 6 Noroeste 0 909.2 0 90
2017-08-02 07:00:00 14.7 3 Noroeste 7 Noroeste 0 909.1 -0.3 92
2017-08-02 06:00:00 14.3 2 Noroeste 6 Norte 0 909 -0.4 93
2017-08-02 05:00:00 14.5 0 Calma 5 Oeste 0 909.2 -0.4 92
2017-08-02 04:00:00 14.7 0 Calma 6 Norte 0 909.4 -0.1 91
2017-08-02 03:00:00 15.6 3 Noroeste 6 Norte 0 909.4 0.3 89
2017-08-02 02:00:00 15.7 0 Calma 6 Norte 0 909.6 1.4 88
2017-08-02 01:00:00 15.7 2 Norte 7 Noroeste 0 909.5 2.5 88
2017-08-02 00:00:00 16.3 0 Calma 15 Nordeste 0 909.1 3.3 87
2017-08-01 23:00:00 17.2 2 Noroeste 7 Norte 0 908.2 3.3 85
2017-08-01 22:00:00 18.2 0 Calma 6 Norte 0 907 2.2 83
2017-08-01 21:00:00 20.2 3 Noroeste 15 Oeste 0 905.8 0.9 78
2017-08-01 20:00:00 22.7 2 Norte 7 Norte 0 904.9 0.6 69
2017-08-01 19:00:00 26.3 2 Oeste 30 Sudeste 0 904.8 0.3 55
2017-08-01 18:00:00 27.4 10 Sudeste 39 Sur 0 904.9 0.4 40
2017-08-01 17:00:00 28.8 7 Sudeste 33 Este 0 904.3 -0.4 36
2017-08-01 16:00:00 28.2 7 Sudeste 21 Sudeste 0 904.5 0.2 38
2017-08-01 15:00:00 29.7 6 Sudeste 22 Este 0 904.5 0.2 40
2017-08-01 14:00:00 26.8 7 Sudeste 29 Sudeste 0 904.7 0.8 50
2017-08-01 13:00:00 27.6 7 Sudeste 26 Sudeste 0 904.3 0.6 50
2017-08-01 12:00:00 25.2 6 Sudeste 24 Sudeste 0 904.3 0.5 56
2017-08-01 11:00:00 24.6 2 Sudeste 8 Este 0 903.9 0.3 62
2017-08-01 10:00:00 22 3 Sudeste 12 Norte 0 903.7 1.4 67
2017-08-01 09:00:00 18.6 2 Nordeste 7 Sudoeste 0 903.8 1.1 88
2017-08-01 08:00:00 16.3 3 Sudeste 15 Noroeste 0.2 903.6 1.5 96
2017-08-01 07:00:00 16.1 0 Calma 13 Sur 1.6 902.3 0.1 96
2017-08-01 06:00:00 17.6 6 Norte 18 Noroeste 0 902.7 0.6 71
2017-08-01 05:00:00 15.2 3 Noroeste 7 Noroeste 0 902.1 0.1 77
2017-08-01 04:00:00 14.9 2 Norte 6 Norte 0 902.2 0.3 77
2017-08-01 03:00:00 15.4 2 Norte 6 Noroeste 0 902.1 0.3 76
2017-08-01 02:00:00 16.2 0 Calma 6 Norte 0 902 0.6 70
2017-08-01 01:00:00 16.9 2 Norte 6 Norte 0 901.9 1.2 65
2017-08-01 00:00:00 17.6 0 Calma 7 Oeste 0 901.8 1.9 64
2017-07-31 23:00:00 19.2 2 Noroeste 7 Noroeste 0 901.4 1.9 59
2017-07-31 22:00:00 21 3 Noroeste 6 Sudoeste 0 900.7 1.2 57
2017-07-31 21:00:00 25.2 2 Sudeste 25 Este 0 899.9 0.5 39
2017-07-31 20:00:00 28.6 6 Este 28 Este 0 899.5 -0.3 28
2017-07-31 19:00:00 32.8 6 Sudeste 32 Este 0 899.5 -0.8 27
2017-07-31 18:00:00 32.6 12 Este 36 Este 0 899.4 -1.4 20
2017-07-31 17:00:00 32.8 10 Sudeste 35 Este 0 899.8 -1.2 22
2017-07-31 16:00:00 32.6 11 Sudeste 36 Este 0 900.3 -1 25
2017-07-31 15:00:00 31.9 10 Sudeste 41 Este 0 900.8 -0.8 26
2017-07-31 14:00:00 31.2 10 Este 41 Este 0 901 -0.9 28
2017-07-31 13:00:00 30 8 Sudeste 33 Sur 0 901.3 -1 31
2017-07-31 12:00:00 28.2 8 Sudeste 27 Sudeste 0 901.6 -0.9 33
2017-07-31 11:00:00 25.4 6 Sudeste 20 Sur 0 901.9 -0.7 44
2017-07-31 10:00:00 21.9 0 Calma 7 Noroeste 0 902.3 -0.3 68
2017-07-31 09:00:00 17.6 0 Calma 6 Noroeste 0 902.5 0.1 81
2017-07-31 08:00:00 14.7 0 Calma 6 Oeste 0 902.6 0.2 90
2017-07-31 07:00:00 14.1 2 Norte 5 Norte 0 902.6 0 90
2017-07-31 06:00:00 15.2 0 Calma 8 Norte 0 902.4 -0.4 87
2017-07-31 05:00:00 15.9 0 Calma 12 Norte 0 902.4 -0.5 84
2017-07-31 04:00:00 16.6 2 Noroeste 13 Norte 0 902.6 -0.4 83
2017-07-31 03:00:00 17.1 3 Norte 19 Norte 0 902.8 -0.2 81
2017-07-31 02:00:00 17.6 0 Calma 12 Norte 0 902.9 -0.4 80
2017-07-31 01:00:00 18.4 4 Norte 15 Norte 0 903 0.3 76
2017-07-31 00:00:00 19.7 6 Noroeste 22 Norte 0 903 1.2 68
2017-07-30 23:00:00 20.1 5 Noroeste 17 Noroeste 0 903.3 1.5 66
2017-07-30 22:00:00 22.7 5 Sudeste 45 Noroeste 0 902.7 1.1 51
2017-07-30 21:00:00 21 3 Norte 19 Norte 0 901.8 0.4 67
2017-07-30 20:00:00 21.2 4 Noroeste 13 Norte 0 901.8 0 69
2017-07-30 19:00:00 23.9 7 Norte 35 Este 0 901.6 -0.4 61
2017-07-30 18:00:00 30 14 Este 38 Sudeste 0 901.4 -1 22
2017-07-30 17:00:00 31.3 10 Sudeste 40 Este 0 901.8 -0.6 23
2017-07-30 16:00:00 31.7 9 Sudeste 41 Nordeste 0 902 -1 23
2017-07-30 15:00:00 30.2 9 Este 46 Este 0 902.4 -1.4 24
2017-07-30 14:00:00 31.7 10 Sudeste 36 Este 0 902.4 -1.5 25
2017-07-30 13:00:00 30.8 7 Sudeste 31 Sudeste 0 903 -1.2 35
2017-07-30 12:00:00 28.4 9 Sudeste 24 Este 0 903.8 -0.8 40
2017-07-30 11:00:00 25.3 5 Sur 13 Este 0 903.9 -0.7 57
2017-07-30 10:00:00 23.6 3 Sudeste 9 Noroeste 0 904.2 -0.3 66
2017-07-30 09:00:00 19.3 3 Este 11 Norte 0 904.6 0 84
2017-07-30 08:00:00 17.1 2 Noroeste 8 Noroeste 0 904.6 -0.2 92
2017-07-30 07:00:00 16 2 Oeste 12 Norte 0 904.5 -0.4 93
2017-07-30 06:00:00 15.9 0 Calma 8 Noroeste 0 904.6 -0.8 93
2017-07-30 05:00:00 15.5 4 Noroeste 15 Sudeste 0 904.8 -1 93
2017-07-30 04:00:00 16 2 Noroeste 9 Norte 0 904.9 -1.3 91
2017-07-30 03:00:00 16.2 0 Calma 12 Noroeste 0 905.4 -0.6 90
2017-07-30 02:00:00 16.3 3 Noroeste 6 Noroeste 0 905.8 -0.1 91
2017-07-30 01:00:00 16.6 2 Noroeste 6 Noroeste 0 906.2 0.8 88
2017-07-30 00:00:00 17.5 3 Noroeste 8 Noroeste 0 906 1.1 84
2017-07-29 23:00:00 17.9 0 Calma 9 Noroeste 0 905.9 1.2 82
2017-07-29 22:00:00 19.1 2 Noroeste 13 Noroeste 0 905.4 1.1 79
2017-07-29 21:00:00 21.2 6 Noroeste 16 Noroeste 0 904.9 0.7 72
2017-07-29 20:00:00 23.8 3 Oeste 19 Norte 0 904.7 -0.1 61
2017-07-29 19:00:00 28.1 5 Nordeste 24 Este 0 904.3 -0.6 44
2017-07-29 18:00:00 30.7 4 Sudeste 15 Este 0 904.2 -1 32
2017-07-29 17:00:00 26.7 3 Noroeste 23 Sudeste 0 904.8 -0.9 53
2017-07-29 16:00:00 30.7 8 Sudeste 23 Sudeste 0 904.9 -0.9 35
2017-07-29 15:00:00 32.1 8 Sudeste 22 Sur 0 905.2 -0.9 33
2017-07-29 14:00:00 31.1 9 Sudeste 27 Sur 0 905.7 -0.5 33
2017-07-29 13:00:00 29.8 11 Sudeste 27 Sur 0 905.8 -1 41
2017-07-29 12:00:00 27.6 10 Este 30 Este 0 906.1 -0.7 47
2017-07-29 11:00:00 25.8 8 Sudeste 24 Sudeste 0 906.2 -0.7 56
2017-07-29 10:00:00 22.8 2 Este 13 Oeste 0 906.8 -0.1 67
2017-07-29 09:00:00 17.4 3 Norte 6 Noroeste 0 906.8 0 84
2017-07-29 08:00:00 14.4 0 Calma 9 Norte 0 906.9 -0.1 91
2017-07-29 07:00:00 14.3 3 Noroeste 15 Oeste 0 906.9 -0.3 90
2017-07-29 06:00:00 14.4 0 Calma 14 Norte 0 906.8 -1 88
2017-07-29 05:00:00 14.1 4 Noroeste 12 Noroeste 0 907 -0.8 91
2017-07-29 04:00:00 14.1 0 Calma 6 Noroeste 0 907.2 -0.5 91
2017-07-29 03:00:00 14.6 0 Calma 14 Norte 0 907.8 0.4 87
2017-07-29 02:00:00 14.8 0 Calma 6 Noroeste 0 907.8 0.7 88
2017-07-29 01:00:00 15.6 0 Calma 7 Noroeste 0 907.7 1.3 85
2017-07-29 00:00:00 16.4 3 Noroeste 8 Noroeste 0 907.4 1.8 81
2017-07-28 23:00:00 17.4 2 Noroeste 9 Noroeste 0 907.1 1.9 81
2017-07-28 22:00:00 18.9 2 Noroeste 8 Norte 0 906.4 1.7 78
2017-07-28 21:00:00 21.2 2 Norte 6 Noroeste 0 905.6 0.7 75
2017-07-28 20:00:00 24.9 0 Calma 5 Sudeste 0 905.2 0.1 62
2017-07-28 19:00:00 29.6 3 Sur 10 Sur 0 904.7 -0.6 44
2017-07-28 18:00:00 27.4 4 Sudeste 22 Sudeste 0 904.9 -0.7 51
2017-07-28 17:00:00 30.2 6 Sudeste 21 Sudeste 0 905.1 -1 36
2017-07-28 16:00:00 30.2 6 Sudeste 27 Este 0 905.3 -0.9 35
2017-07-28 15:00:00 29.8 7 Sudeste 27 Este 0 905.6 -0.3 36
2017-07-28 14:00:00 29.6 6 Sudeste 27 Este 0 906.1 0 35
2017-07-28 13:00:00 29.4 8 Sudeste 31 Este 0 906.2 -0.3 35
2017-07-28 12:00:00 27.9 7 Sudeste 25 Este 0 905.9 -0.7 37
2017-07-28 11:00:00 25.7 6 Sudeste 24 Este 0 906.1 -0.5 43
2017-07-28 10:00:00 21 0 Calma 5 Noroeste 0 906.5 0.3 51
2017-07-28 09:00:00 15.2 0 Calma 8 Noroeste 0 906.6 0.5 78
2017-07-28 08:00:00 11.7 2 Noroeste 7 Noroeste 0 906.6 0.6 86
2017-07-28 07:00:00 11.3 0 Calma 8 Norte 0 906.2 0.2 85
2017-07-28 06:00:00 11.7 2 Norte 8 Noroeste 0 906.1 0.2 84
2017-07-28 05:00:00 12 2 Noroeste 7 Oeste 0 906 0.1 81
2017-07-28 04:00:00 12.4 3 Noroeste 12 Noroeste 0 906 0.5 79
2017-07-28 03:00:00 12.7 0 Calma 6 Noroeste 0 905.9 0.7 80
2017-07-28 02:00:00 13.3 0 Calma 8 Norte 0 905.9 0.9 78
2017-07-28 01:00:00 14.2 3 Noroeste 7 Norte 0 905.5 1.1 75
2017-07-28 00:00:00 16.1 4 Noroeste 16 Noroeste 0 905.2 1.7 66
2017-07-27 23:00:00 16.7 3 Oeste 9 Oeste 0 905 2.3 69
2017-07-27 22:00:00 18.2 2 Norte 12 Noroeste 0 904.4 1.9 65
2017-07-27 21:00:00 20.5 4 Norte 13 Noroeste 0 903.5 0.8 57
2017-07-27 20:00:00 24 4 Noroeste 8 Noroeste 0 902.7 -0.1 44
2017-07-27 19:00:00 31.6 3 Sur 24 Este 0 902.5 -0.7 27
2017-07-27 18:00:00 32.1 9 Sudeste 27 Sur 0 902.7 -0.6 21
2017-07-27 17:00:00 31.9 8 Sudeste 27 Sudeste 0 902.8 -0.8 27
2017-07-27 16:00:00 31.4 7 Sudeste 26 Sur 0 903.2 -0.7 27
2017-07-27 15:00:00 30.8 6 Sudeste 29 Sur 0 903.3 -0.8 28
2017-07-27 14:00:00 29.8 9 Sudeste 34 Este 0 903.6 -0.9 29
2017-07-27 13:00:00 27.6 14 Este 38 Este 0 903.9 -1.2 30
2017-07-27 12:00:00 27.9 7 Sudeste 21 Sur 0 904.1 -1.2 30
2017-07-27 11:00:00 24 4 Este 11 Este 0 904.5 -0.8 36
2017-07-27 10:00:00 19.5 0 Calma 9 Noroeste 0 905.1 -0.1 55
2017-07-27 09:00:00 13.6 2 Este 15 Norte 0 905.3 0.2 73
2017-07-27 08:00:00 10.1 0 Calma 11 Noroeste 0 905.3 0.4 83
2017-07-27 07:00:00 10 2 Oeste 11 Noroeste 0 905.2 0.3 81
2017-07-27 06:00:00 10.1 3 Noroeste 15 Noroeste 0 905.1 0 80
2017-07-27 05:00:00 10.6 0 Calma 10 Noroeste 0 904.9 -0.3 80
2017-07-27 04:00:00 11.9 5 Noroeste 13 Norte 0 904.9 -0.5 72
2017-07-27 03:00:00 12.8 4 Noroeste 15 Noroeste 0 905.1 -0.2 71
2017-07-27 02:00:00 12.7 0 Calma 10 Noroeste 0 905.2 0.1 76
2017-07-27 01:00:00 13.8 2 Noroeste 16 Norte 0 905.4 0.7 73
2017-07-27 00:00:00 15 3 Noroeste 16 Noroeste 0 905.3 1.2 69
2017-07-26 23:00:00 17 2 Oeste 22 Noroeste 0 905.1 1.6 61
2017-07-26 22:00:00 18.5 8 Noroeste 17 Noroeste 0 904.7 1.5 60
2017-07-26 21:00:00 20.1 3 Noroeste 19 Noroeste 0 904.1 1 58
2017-07-26 20:00:00 23.5 6 Noroeste 23 Noroeste 0 903.5 0.5 42
2017-07-26 19:00:00 25.9 9 Noroeste 32 Noroeste 0 903.2 0.3 34
2017-07-26 18:00:00 26.2 12 Noroeste 32 Noroeste 0 903.1 0.1 33
2017-07-26 17:00:00 27.2 15 Noroeste 40 Noroeste 0 903 -0.2 31
2017-07-26 16:00:00 26.4 15 Noroeste 41 Noroeste 0 902.9 -0.5 30
2017-07-26 15:00:00 25.4 5 Este 22 Sudeste 0 903 -0.3 38
2017-07-26 14:00:00 24.9 6 Sudeste 30 Sur 0 903.2 -0.4 34
2017-07-26 13:00:00 24.4 8 Sudeste 30 Sudeste 0 903.4 -0.6 30
2017-07-26 12:00:00 23.8 7 Sudeste 30 Sudeste 0 903.3 -0.9 32
2017-07-26 11:00:00 21.2 6 Este 14 Este 0 903.6 -0.6 34
2017-07-26 10:00:00 18.3 3 Nordeste 14 Norte 0 904 0 47
2017-07-26 09:00:00 12.9 4 Norte 13 Norte 0 904.2 0.3 66
2017-07-26 08:00:00 9.3 4 Noroeste 14 Noroeste 0 904.2 0.5 74
2017-07-26 07:00:00 8.9 5 Noroeste 14 Noroeste 0 904 0 72
2017-07-26 06:00:00 8.2 0 Calma 10 Noroeste 0 903.9 -0.2 78
2017-07-26 05:00:00 8.7 0 Calma 13 Noroeste 0 903.7 -0.7 79
2017-07-26 04:00:00 10 4 Noroeste 20 Norte 0 904 -0.6 72
2017-07-26 03:00:00 11.8 7 Norte 29 Norte 0 904.1 -0.7 66
2017-07-26 02:00:00 12.8 13 Norte 32 Norte 0 904.4 -0.6 65
2017-07-26 01:00:00 13.5 10 Norte 27 Norte 0 904.6 -0.3 64
2017-07-26 00:00:00 15.1 11 Noroeste 24 Noroeste 0 904.8 0.6 58
2017-07-25 23:00:00 16 8 Noroeste 35 Noroeste 0 905 1.4 54
2017-07-25 22:00:00 16.9 12 Noroeste 36 Noroeste 0 904.9 1.5 52
2017-07-25 21:00:00 18 13 Noroeste 35 Noroeste 0 904.2 0.7 51
2017-07-25 20:00:00 19.3 13 Noroeste 46 Norte 0 903.6 0.3 48
2017-07-25 19:00:00 20.6 15 Noroeste 40 Noroeste 0 903.4 -0.1 44
2017-07-25 18:00:00 21.7 14 Noroeste 45 Noroeste 0 903.5 -0.1 41
2017-07-25 17:00:00 23.6 18 Noroeste 43 Noroeste 0 903.3 -0.6 35
2017-07-25 16:00:00 24 18 Noroeste 40 Noroeste 0 903.5 -1 35
2017-07-25 15:00:00 23.8 19 Noroeste 42 Noroeste 0 903.6 -1.1 32
2017-07-25 14:00:00 23.5 18 Noroeste 36 Noroeste 0 903.9 -1.3 32
2017-07-25 13:00:00 22.8 15 Noroeste 42 Noroeste 0 904.5 -1.1 32
2017-07-25 12:00:00 21.4 17 Noroeste 42 Noroeste 0 904.7 -1.3 38
2017-07-25 11:00:00 19.5 14 Noroeste 42 Noroeste 0 905.2 -0.9 41
2017-07-25 10:00:00 17.7 18 Noroeste 41 Noroeste 0 905.6 -0.5 44
2017-07-25 09:00:00 15.9 11 Noroeste 28 Norte 0 906 0.4 52
2017-07-25 08:00:00 12.3 9 Noroeste 32 Noroeste 0 906.1 0.3 62
2017-07-25 07:00:00 13.5 10 Noroeste 39 Noroeste 0 906.1 -0.2 57
2017-07-25 06:00:00 13.8 11 Noroeste 38 Noroeste 0 905.6 -0.9 55
2017-07-25 05:00:00 12.1 13 Norte 30 Noroeste 0 905.8 -1.2 61
2017-07-25 04:00:00 13.9 14 Noroeste 36 Noroeste 0 906.3 -1 55
2017-07-25 03:00:00 15.8 15 Noroeste 44 Noroeste 0 906.5 -1 49
2017-07-25 02:00:00 15.3 13 Noroeste 36 Noroeste 0 907 -0.9 51
2017-07-25 01:00:00 15 12 Noroeste 31 Norte 0 907.3 -0.3 56
2017-07-25 00:00:00 16.4 13 Norte 33 Noroeste 0 907.5 0.5 50
2017-07-24 23:00:00 16.7 15 Noroeste 36 Noroeste 0 907.9 1.5 49
2017-07-24 22:00:00 17.7 15 Noroeste 37 Noroeste 0 907.6 1.6 48
2017-07-24 21:00:00 18.6 14 Noroeste 32 Noroeste 0 907 1.4 49
2017-07-24 20:00:00 20.7 12 Noroeste 35 Noroeste 0 906.4 1.1 43
2017-07-24 19:00:00 23.6 15 Norte 37 Noroeste 0 906 0.6 36
2017-07-24 18:00:00 23.8 12 Noroeste 43 Norte 0 905.6 0 37
2017-07-24 17:00:00 23.1 16 Noroeste 50 Noroeste 0 905.3 -0.3 35
2017-07-24 16:00:00 23.2 16 Noroeste 46 Noroeste 0 905.4 -0.3 35
2017-07-24 15:00:00 23.7 16 Noroeste 42 Noroeste 0 905.6 -0.3 34
2017-07-24 14:00:00 24.4 11 Noroeste 38 Noroeste 0 905.6 -0.3 37
2017-07-24 13:00:00 23.9 6 Noroeste 30 Norte 0 905.7 0.2 38
2017-07-24 12:00:00 23.4 10 Noroeste 34 Noroeste 0 905.9 0.3 40
2017-07-24 11:00:00 21.4 12 Norte 34 Noroeste 0 905.9 0.3 44
2017-07-24 10:00:00 19 6 Norte 29 Norte 0 905.5 -0.3 64
2017-07-24 09:00:00 13.2 0 Calma 6 Este 0 905.6 -0.2 98
2017-07-24 08:00:00 12.3 4 Norte 10 Norte 0 905.6 -0.4 98
2017-07-24 07:00:00 11.7 2 Noroeste 14 Noroeste 0 905.8 -0.6 98
2017-07-24 06:00:00 12 3 Noroeste 8 Norte 0 905.8 -1 98
2017-07-24 05:00:00 12.6 3 Noroeste 14 Norte 0 906 -0.9 97
2017-07-24 04:00:00 13.7 4 Noroeste 13 Noroeste 0 906.4 -0.8 96
2017-07-24 03:00:00 14.2 4 Noroeste 19 Norte 0 906.8 -0.5 94
2017-07-24 02:00:00 14.6 4 Norte 16 Norte 0 906.9 -0.2 98
2017-07-24 01:00:00 15.2 3 Norte 11 Norte 0 907.2 0.5 98
2017-07-24 00:00:00 15.3 2 Noroeste 12 Norte 0 907.3 0.9 98
2017-07-23 23:00:00 15.7 0 Calma 13 Norte 0 907.1 0.9 97
2017-07-23 22:00:00 16.4 2 Noroeste 6 Norte 0 906.7 0.6 97
2017-07-23 21:00:00 17.8 2 Noroeste 5 Norte 0 906.4 0 94
2017-07-23 20:00:00 19.1 0 Calma 10 Sudeste 0 906.2 -0.8 89
2017-07-23 19:00:00 20.9 0 Calma 18 Norte 0 906.1 -0.4 83
2017-07-23 18:00:00 20.3 7 Norte 17 Norte 4 906.4 -0.1 80
2017-07-23 17:00:00 18.6 0 Calma 28 Norte 7 907 0 93
2017-07-23 16:00:00 20.3 10 Noroeste 29 Sur 0.4 906.5 -1.1 80
2017-07-23 15:00:00 24.3 6 Sudeste 29 Sur 0 906.5 -1.4 58
2017-07-23 14:00:00 24.5 4 Este 20 Este 0 907 -0.4 54
2017-07-23 13:00:00 24.6 8 Sur 27 Sur 0 907.6 -0.5 59
2017-07-23 12:00:00 23.1 8 Sudeste 26 Este 0 907.9 -0.3 63
2017-07-23 11:00:00 24 10 Sudeste 24 Este 0 907.4 -0.8 61
2017-07-23 10:00:00 21.3 9 Sudeste 28 Sur 0 908.1 0.1 73
2017-07-23 09:00:00 17 0 Calma 5 Noroeste 0 908.2 0.5 93
2017-07-23 08:00:00 14.9 0 Calma 3 Oeste 0 908.2 1 98
2017-07-23 07:00:00 13.8 0 Calma 4 Norte 0 908 0.8 98
2017-07-23 06:00:00 14 0 Calma 4 Norte 0 907.7 0.4 98
2017-07-23 05:00:00 14.5 0 Calma 4 Noroeste 0 907.2 -0.1 97
2017-07-23 04:00:00 15.1 0 Calma 5 Noroeste 0 907.2 -0.1 97
2017-07-23 03:00:00 15.3 0 Calma 5 Norte 0 907.3 0.5 95
2017-07-23 02:00:00 15.8 2 Norte 5 Norte 0 907.3 0.8 94
2017-07-23 01:00:00 16.6 0 Calma 6 Noroeste 0 907.3 1.7 92
2017-07-23 00:00:00 16.9 4 Norte 10 Norte 0 906.8 2.2 89
2017-07-22 23:00:00 17.5 2 Noroeste 10 Norte 0 906.5 2.5 85
2017-07-22 22:00:00 18.5 2 Norte 8 Norte 0 905.6 1.9 85
2017-07-22 21:00:00 19.8 3 Norte 14 Norte 0 904.6 1.1 81
2017-07-22 20:00:00 22.7 2 Sudeste 17 Este 0 904 0.4 68
2017-07-22 19:00:00 24.2 3 Sudeste 19 Este 0 903.7 -0.1 58
2017-07-22 18:00:00 24.2 5 Sudeste 30 Este 0 903.5 -0.4 42
2017-07-22 17:00:00 27.1 7 Sudeste 31 Sudeste 0 903.6 -0.4 38
2017-07-22 16:00:00 25.5 13 Este 33 Este 0 903.8 -0.5 40
2017-07-22 15:00:00 24.6 7 Sudeste 26 Sur 0 903.9 -0.3 44
2017-07-22 14:00:00 24.3 8 Sudeste 27 Sudeste 0 904 -0.3 52
2017-07-22 13:00:00 24.7 7 Sudeste 27 Este 0 904.3 -0.2 53
2017-07-22 12:00:00 24.9 6 Sudeste 22 Este 0 904.2 -0.2 56
2017-07-22 11:00:00 23.2 7 Sur 22 Sur 0 904.3 0.4 61
2017-07-22 10:00:00 17.8 2 Sudeste 6 Este 0 904.5 0.8 92
2017-07-22 09:00:00 15.6 0 Calma 4 Este 0 904.4 1.1 98
2017-07-22 08:00:00 14.5 0 Calma -- -- 0 903.9 0.6 98
2017-07-22 07:00:00 13.8 0 Calma 6 Norte 0 903.7 0.2 98
2017-07-22 06:00:00 13.9 0 Calma 4 Norte 0 903.3 -0.3 98
2017-07-22 05:00:00 14.2 0 Calma 4 Noroeste 0 903.3 -0.3 98
2017-07-22 04:00:00 14.5 0 Calma 5 Norte 0 903.5 0 98
2017-07-22 03:00:00 14.8 2 Noroeste 13 Norte 0 903.6 0.1 98
2017-07-22 02:00:00 15.1 2 Nordeste 14 Sur 0.2 903.6 0.5 98
2017-07-22 01:00:00 14.9 3 Noroeste 11 Nordeste 0 903.5 0.4 98
2017-07-22 00:00:00 14.7 3 Sudeste 9 Noroeste 0 903.5 1.1 98